sensor_id;sensor_type;location;lat;lon;timestamp;pressure;altitude;pressure_sealevel;temperature;humidity
21401;BME280;18038;50.166;18.908;2023-02-26T00:01:55;96775.25;;;-2.32;82.89
21401;BME280;18038;50.166;18.908;2023-02-26T00:05:04;96789.53;;;-2.26;82.90
21401;BME280;18038;50.166;18.908;2023-02-26T00:08:11;96797.31;;;-2.44;83.01
21401;BME280;18038;50.166;18.908;2023-02-26T00:11:18;96797.94;;;-2.32;82.66
21401;BME280;18038;50.166;18.908;2023-02-26T00:14:28;96798.41;;;-2.37;82.93
21401;BME280;18038;50.166;18.908;2023-02-26T00:17:41;96799.06;;;-2.35;82.92
21401;BME280;18038;50.166;18.908;2023-02-26T00:20:53;96801.28;;;-2.40;82.88
21401;BME280;18038;50.166;18.908;2023-02-26T00:24:01;96805.16;;;-2.44;82.79
21401;BME280;18038;50.166;18.908;2023-02-26T00:27:10;96802.94;;;-2.39;83.11
21401;BME280;18038;50.166;18.908;2023-02-26T00:30:21;96807.56;;;-2.23;82.26
21401;BME280;18038;50.166;18.908;2023-02-26T00:33:28;96816.84;;;-2.11;82.29
21401;BME280;18038;50.166;18.908;2023-02-26T00:36:44;96835.63;;;-2.15;81.80
21401;BME280;18038;50.166;18.908;2023-02-26T00:40:07;96830.41;;;-2.25;82.16
21401;BME280;18038;50.166;18.908;2023-02-26T00:43:25;96829.81;;;-2.09;81.87
21401;BME280;18038;50.166;18.908;2023-02-26T00:46:44;96834.84;;;-1.98;81.33
21401;BME280;18038;50.166;18.908;2023-02-26T00:50:05;96824.59;;;-2.19;81.73
21401;BME280;18038;50.166;18.908;2023-02-26T00:53:26;96841.53;;;-2.13;81.56
21401;BME280;18038;50.166;18.908;2023-02-26T00:56:39;96846.72;;;-2.04;81.66
21401;BME280;18038;50.166;18.908;2023-02-26T00:59:45;96856.94;;;-2.10;81.38
21401;BME280;18038;50.166;18.908;2023-02-26T01:02:55;96861.00;;;-1.98;81.42
21401;BME280;18038;50.166;18.908;2023-02-26T01:06:02;96861.88;;;-2.07;80.79
21401;BME280;18038;50.166;18.908;2023-02-26T01:09:16;96854.47;;;-2.12;80.47
21401;BME280;18038;50.166;18.908;2023-02-26T01:12:28;96852.56;;;-2.19;80.88
21401;BME280;18038;50.166;18.908;2023-02-26T01:15:36;96846.84;;;-2.42;81.27
21401;BME280;18038;50.166;18.908;2023-02-26T01:18:49;96841.75;;;-2.34;81.95
21401;BME280;18038;50.166;18.908;2023-02-26T01:22:09;96844.16;;;-2.13;81.67
21401;BME280;18038;50.166;18.908;2023-02-26T01:25:26;96841.38;;;-2.12;80.87
21401;BME280;18038;50.166;18.908;2023-02-26T01:28:40;96843.28;;;-2.04;80.79
21401;BME280;18038;50.166;18.908;2023-02-26T01:31:53;96844.50;;;-1.98;80.66
21401;BME280;18038;50.166;18.908;2023-02-26T01:35:17;96850.31;;;-2.05;80.22
21401;BME280;18038;50.166;18.908;2023-02-26T01:38:40;96856.25;;;-2.12;80.83
21401;BME280;18038;50.166;18.908;2023-02-26T01:41:58;96857.41;;;-2.25;80.85
21401;BME280;18038;50.166;18.908;2023-02-26T01:45:14;96861.13;;;-2.27;81.26
21401;BME280;18038;50.166;18.908;2023-02-26T01:48:36;96861.13;;;-2.27;81.09
21401;BME280;18038;50.166;18.908;2023-02-26T01:51:54;96867.84;;;-2.25;81.09
21401;BME280;18038;50.166;18.908;2023-02-26T01:55:04;96884.25;;;-2.22;81.25
21401;BME280;18038;50.166;18.908;2023-02-26T01:58:11;96877.81;;;-2.38;81.37
21401;BME280;18038;50.166;18.908;2023-02-26T02:01:19;96880.72;;;-2.41;82.30
21401;BME280;18038;50.166;18.908;2023-02-26T02:04:26;96897.50;;;-2.43;82.28
21401;BME280;18038;50.166;18.908;2023-02-26T02:07:39;96902.31;;;-2.49;82.45
21401;BME280;18038;50.166;18.908;2023-02-26T02:10:48;96907.16;;;-2.44;82.26
21401;BME280;18038;50.166;18.908;2023-02-26T02:14:09;96915.09;;;-2.36;82.12
21401;BME280;18038;50.166;18.908;2023-02-26T02:17:31;96920.09;;;-2.72;82.23
21401;BME280;18038;50.166;18.908;2023-02-26T02:24:51;96929.16;;;-2.56;82.52
21401;BME280;18038;50.166;18.908;2023-02-26T02:28:25;96935.78;;;-2.52;83.15
21401;BME280;18038;50.166;18.908;2023-02-26T02:31:53;96939.63;;;-2.56;82.37
21401;BME280;18038;50.166;18.908;2023-02-26T02:35:12;96946.53;;;-2.55;81.99
21401;BME280;18038;50.166;18.908;2023-02-26T02:38:25;96944.88;;;-2.66;82.51
21401;BME280;18038;50.166;18.908;2023-02-26T02:41:43;96951.63;;;-2.73;82.16
21401;BME280;18038;50.166;18.908;2023-02-26T02:44:58;96955.44;;;-2.77;82.44
21401;BME280;18038;50.166;18.908;2023-02-26T02:51:45;96940.03;;;-2.51;81.03
21401;BME280;18038;50.166;18.908;2023-02-26T02:55:04;96949.97;;;-2.45;80.56
21401;BME280;18038;50.166;18.908;2023-02-26T02:58:20;96941.28;;;-2.55;80.06
21401;BME280;18038;50.166;18.908;2023-02-26T03:01:40;96946.53;;;-2.55;78.48
21401;BME280;18038;50.166;18.908;2023-02-26T03:04:51;96944.47;;;-2.71;78.59
21401;BME280;18038;50.166;18.908;2023-02-26T03:08:02;96957.25;;;-2.68;78.31
21401;BME280;18038;50.166;18.908;2023-02-26T03:11:11;96960.53;;;-2.85;77.70
21401;BME280;18038;50.166;18.908;2023-02-26T03:14:24;96968.66;;;-2.88;77.99
21401;BME280;18038;50.166;18.908;2023-02-26T03:17:45;96983.66;;;-2.81;78.15
21401;BME280;18038;50.166;18.908;2023-02-26T03:21:22;96986.94;;;-2.98;79.00
21401;BME280;18038;50.166;18.908;2023-02-26T03:24:37;96989.97;;;-3.03;78.42
21401;BME280;18038;50.166;18.908;2023-02-26T03:27:56;96993.53;;;-2.94;78.63
21401;BME280;18038;50.166;18.908;2023-02-26T03:31:16;97001.22;;;-3.12;78.76
21401;BME280;18038;50.166;18.908;2023-02-26T03:34:36;97020.03;;;-3.18;78.87
21401;BME280;18038;50.166;18.908;2023-02-26T03:37:51;97029.13;;;-3.13;78.81
21401;BME280;18038;50.166;18.908;2023-02-26T03:41:07;97028.16;;;-3.12;78.97
21401;BME280;18038;50.166;18.908;2023-02-26T03:44:20;97031.50;;;-3.00;78.96
21401;BME280;18038;50.166;18.908;2023-02-26T03:47:42;97034.66;;;-2.96;79.01
21401;BME280;18038;50.166;18.908;2023-02-26T03:50:53;97040.56;;;-2.94;78.83
21401;BME280;18038;50.166;18.908;2023-02-26T03:54:17;97043.59;;;-2.99;78.45
21401;BME280;18038;50.166;18.908;2023-02-26T03:57:41;97037.78;;;-3.12;77.89
21401;BME280;18038;50.166;18.908;2023-02-26T04:01:22;97050.19;;;-3.04;77.58
21401;BME280;18038;50.166;18.908;2023-02-26T04:04:38;97046.19;;;-3.08;77.50
21401;BME280;18038;50.166;18.908;2023-02-26T04:07:49;97055.88;;;-2.89;76.61
21401;BME280;18038;50.166;18.908;2023-02-26T04:11:02;97068.94;;;-2.89;76.33
21401;BME280;18038;50.166;18.908;2023-02-26T04:14:12;97064.72;;;-3.12;76.08
21401;BME280;18038;50.166;18.908;2023-02-26T04:17:19;97064.88;;;-3.03;75.55
21401;BME280;18038;50.166;18.908;2023-02-26T04:20:25;97071.19;;;-3.16;75.79
21401;BME280;18038;50.166;18.908;2023-02-26T04:23:32;97081.72;;;-3.27;75.47
21401;BME280;18038;50.166;18.908;2023-02-26T04:26:42;97089.28;;;-3.24;75.04
21401;BME280;18038;50.166;18.908;2023-02-26T04:29:49;97089.69;;;-3.28;75.42
21401;BME280;18038;50.166;18.908;2023-02-26T04:32:56;97070.44;;;-3.27;75.20
21401;BME280;18038;50.166;18.908;2023-02-26T04:36:03;97091.56;;;-3.40;74.52
21401;BME280;18038;50.166;18.908;2023-02-26T04:39:11;97109.44;;;-3.36;73.81
21401;BME280;18038;50.166;18.908;2023-02-26T04:42:25;97107.47;;;-3.43;73.73
21401;BME280;18038;50.166;18.908;2023-02-26T04:45:33;97118.06;;;-3.45;74.25
21401;BME280;18038;50.166;18.908;2023-02-26T04:48:39;97122.28;;;-3.53;74.15
21401;BME280;18038;50.166;18.908;2023-02-26T04:51:45;97119.25;;;-3.49;75.05
21401;BME280;18038;50.166;18.908;2023-02-26T04:54:54;97128.63;;;-3.46;75.16
21401;BME280;18038;50.166;18.908;2023-02-26T04:58:07;97124.47;;;-3.49;75.16
21401;BME280;18038;50.166;18.908;2023-02-26T05:01:13;97127.84;;;-3.37;75.53
21401;BME280;18038;50.166;18.908;2023-02-26T05:04:20;97135.50;;;-3.45;75.02
21401;BME280;18038;50.166;18.908;2023-02-26T05:07:29;97135.06;;;-3.50;75.32
21401;BME280;18038;50.166;18.908;2023-02-26T05:10:37;97150.91;;;-3.42;75.14
21401;BME280;18038;50.166;18.908;2023-02-26T05:13:45;97145.63;;;-3.52;75.39
21401;BME280;18038;50.166;18.908;2023-02-26T05:16:57;97156.41;;;-3.45;75.59
21401;BME280;18038;50.166;18.908;2023-02-26T05:20:11;97155.28;;;-3.22;75.70
21401;BME280;18038;50.166;18.908;2023-02-26T05:23:24;97153.25;;;-3.18;75.16
21401;BME280;18038;50.166;18.908;2023-02-26T05:26:33;97165.88;;;-3.23;74.92
21401;BME280;18038;50.166;18.908;2023-02-26T05:29:42;97167.59;;;-3.33;74.75
21401;BME280;18038;50.166;18.908;2023-02-26T05:32:49;97175.75;;;-3.27;75.27
21401;BME280;18038;50.166;18.908;2023-02-26T05:35:58;97190.63;;;-3.18;75.53
21401;BME280;18038;50.166;18.908;2023-02-26T05:39:04;97198.34;;;-3.16;75.09
21401;BME280;18038;50.166;18.908;2023-02-26T05:42:11;97202.97;;;-3.20;75.06
21401;BME280;18038;50.166;18.908;2023-02-26T05:45:19;97213.75;;;-3.13;75.19
21401;BME280;18038;50.166;18.908;2023-02-26T05:48:26;97221.41;;;-3.21;74.87
21401;BME280;18038;50.166;18.908;2023-02-26T05:51:32;97228.81;;;-3.26;74.83
21401;BME280;18038;50.166;18.908;2023-02-26T05:54:39;97241.41;;;-3.10;75.21
21401;BME280;18038;50.166;18.908;2023-02-26T05:57:45;97248.09;;;-2.97;74.94
21401;BME280;18038;50.166;18.908;2023-02-26T06:00:54;97253.44;;;-2.98;74.87
21401;BME280;18038;50.166;18.908;2023-02-26T06:04:09;97249.09;;;-2.88;74.92
21401;BME280;18038;50.166;18.908;2023-02-26T06:07:20;97261.06;;;-2.85;74.85
21401;BME280;18038;50.166;18.908;2023-02-26T06:10:25;97260.63;;;-2.91;74.49
21401;BME280;18038;50.166;18.908;2023-02-26T06:13:36;97273.31;;;-2.86;74.56
21401;BME280;18038;50.166;18.908;2023-02-26T06:16:45;97280.41;;;-2.77;75.04
21401;BME280;18038;50.166;18.908;2023-02-26T06:19:52;97275.09;;;-2.65;74.66
21401;BME280;18038;50.166;18.908;2023-02-26T06:22:58;97281.50;;;-2.79;75.04
21401;BME280;18038;50.166;18.908;2023-02-26T06:26:10;97287.19;;;-2.64;75.27
21401;BME280;18038;50.166;18.908;2023-02-26T06:29:18;97302.81;;;-2.74;75.45
21401;BME280;18038;50.166;18.908;2023-02-26T06:32:28;97303.78;;;-2.75;75.57
21401;BME280;18038;50.166;18.908;2023-02-26T06:35:34;97305.47;;;-2.95;76.05
21401;BME280;18038;50.166;18.908;2023-02-26T06:38:41;97310.25;;;-2.79;75.88
21401;BME280;18038;50.166;18.908;2023-02-26T06:41:48;97320.09;;;-2.83;76.28
21401;BME280;18038;50.166;18.908;2023-02-26T06:44:56;97324.13;;;-2.79;76.14
21401;BME280;18038;50.166;18.908;2023-02-26T06:48:05;97320.44;;;-2.76;76.30
21401;BME280;18038;50.166;18.908;2023-02-26T06:51:11;97321.25;;;-2.76;75.71
21401;BME280;18038;50.166;18.908;2023-02-26T06:54:19;97324.69;;;-2.54;75.52
21401;BME280;18038;50.166;18.908;2023-02-26T06:57:26;97333.78;;;-2.49;75.25
21401;BME280;18038;50.166;18.908;2023-02-26T07:00:32;97332.38;;;-2.32;74.30
21401;BME280;18038;50.166;18.908;2023-02-26T07:03:42;97333.94;;;-2.50;74.82
21401;BME280;18038;50.166;18.908;2023-02-26T07:06:48;97327.66;;;-2.38;74.50
21401;BME280;18038;50.166;18.908;2023-02-26T07:09:55;97328.47;;;-2.37;74.45
21401;BME280;18038;50.166;18.908;2023-02-26T07:13:03;97332.59;;;-2.35;75.05
21401;BME280;18038;50.166;18.908;2023-02-26T07:16:12;97347.84;;;-2.50;75.57
21401;BME280;18038;50.166;18.908;2023-02-26T07:19:21;97352.47;;;-2.53;76.06
21401;BME280;18038;50.166;18.908;2023-02-26T07:22:38;97346.66;;;-2.36;75.68
21401;BME280;18038;50.166;18.908;2023-02-26T07:25:44;97358.72;;;-2.23;75.95
21401;BME280;18038;50.166;18.908;2023-02-26T07:28:51;97359.88;;;-2.07;75.14
21401;BME280;18038;50.166;18.908;2023-02-26T07:31:57;97363.06;;;-1.53;74.44
21401;BME280;18038;50.166;18.908;2023-02-26T07:35:22;97368.34;;;-1.33;71.98
21401;BME280;18038;50.166;18.908;2023-02-26T07:38:36;97366.94;;;-1.47;72.34
21401;BME280;18038;50.166;18.908;2023-02-26T07:41:46;97384.63;;;-1.80;72.78
21401;BME280;18038;50.166;18.908;2023-02-26T07:44:52;97382.50;;;-1.96;72.81
21401;BME280;18038;50.166;18.908;2023-02-26T07:47:58;97395.75;;;-1.88;74.25
21401;BME280;18038;50.166;18.908;2023-02-26T07:51:12;97390.03;;;-1.72;72.99
21401;BME280;18038;50.166;18.908;2023-02-26T07:54:24;97391.88;;;-1.93;74.18
21401;BME280;18038;50.166;18.908;2023-02-26T07:57:31;97385.03;;;-1.85;72.38
21401;BME280;18038;50.166;18.908;2023-02-26T08:00:39;97390.34;;;-1.96;73.03
21401;BME280;18038;50.166;18.908;2023-02-26T08:03:45;97391.06;;;-1.44;73.43
21401;BME280;18038;50.166;18.908;2023-02-26T08:06:55;97400.66;;;-0.84;69.44
21401;BME280;18038;50.166;18.908;2023-02-26T08:10:03;97406.09;;;-0.19;65.71
21401;BME280;18038;50.166;18.908;2023-02-26T08:13:10;97413.91;;;0.65;63.17
21401;BME280;18038;50.166;18.908;2023-02-26T08:16:17;97406.72;;;0.85;61.87
21401;BME280;18038;50.166;18.908;2023-02-26T08:19:37;97408.31;;;-0.15;64.75
21401;BME280;18038;50.166;18.908;2023-02-26T08:22:45;97410.75;;;-0.04;65.60
21401;BME280;18038;50.166;18.908;2023-02-26T08:25:59;97410.75;;;0.61;64.33
21401;BME280;18038;50.166;18.908;2023-02-26T08:29:12;97414.41;;;0.51;63.46
21401;BME280;18038;50.166;18.908;2023-02-26T08:32:20;97430.34;;;0.12;64.67
21401;BME280;18038;50.166;18.908;2023-02-26T08:35:28;97438.31;;;-0.66;63.58
21401;BME280;18038;50.166;18.908;2023-02-26T08:38:45;97424.09;;;-1.02;67.47
21401;BME280;18038;50.166;18.908;2023-02-26T08:41:51;97438.28;;;-1.65;69.89
21401;BME280;18038;50.166;18.908;2023-02-26T08:44:58;97444.78;;;-1.90;71.36
21401;BME280;18038;50.166;18.908;2023-02-26T08:48:04;97442.25;;;-2.01;72.76
21401;BME280;18038;50.166;18.908;2023-02-26T08:51:13;97446.59;;;-1.90;72.69
21401;BME280;18038;50.166;18.908;2023-02-26T08:54:23;97443.97;;;-1.60;71.56
21401;BME280;18038;50.166;18.908;2023-02-26T08:57:52;97441.78;;;-0.85;68.13
21401;BME280;18038;50.166;18.908;2023-02-26T09:00:58;97450.63;;;-0.66;66.75
21401;BME280;18038;50.166;18.908;2023-02-26T09:04:05;97465.94;;;-0.62;67.29
21401;BME280;18038;50.166;18.908;2023-02-26T09:07:11;97460.00;;;-0.35;66.84
21401;BME280;18038;50.166;18.908;2023-02-26T09:10:21;97468.44;;;-0.51;66.28
21401;BME280;18038;50.166;18.908;2023-02-26T09:13:27;97470.34;;;-0.82;65.70
21401;BME280;18038;50.166;18.908;2023-02-26T09:16:37;97471.53;;;-1.05;66.03
21401;BME280;18038;50.166;18.908;2023-02-26T09:19:43;97478.13;;;-1.30;65.96
21401;BME280;18038;50.166;18.908;2023-02-26T09:22:50;97477.97;;;-1.69;67.10
21401;BME280;18038;50.166;18.908;2023-02-26T09:25:59;97479.88;;;-1.41;66.47
21401;BME280;18038;50.166;18.908;2023-02-26T09:29:06;97488.00;;;-1.34;65.18
21401;BME280;18038;50.166;18.908;2023-02-26T09:32:14;97491.03;;;-0.88;63.67
21401;BME280;18038;50.166;18.908;2023-02-26T09:35:21;97482.63;;;-0.24;57.61
21401;BME280;18038;50.166;18.908;2023-02-26T09:38:27;97496.75;;;0.97;53.96
21401;BME280;18038;50.166;18.908;2023-02-26T09:41:40;97493.25;;;1.95;50.83
21401;BME280;18038;50.166;18.908;2023-02-26T09:44:57;97495.69;;;2.75;47.70
21401;BME280;18038;50.166;18.908;2023-02-26T09:48:20;97502.38;;;2.61;48.99
21401;BME280;18038;50.166;18.908;2023-02-26T09:51:29;97495.03;;;3.16;47.75
21401;BME280;18038;50.166;18.908;2023-02-26T09:54:43;97505.44;;;2.49;48.40
21401;BME280;18038;50.166;18.908;2023-02-26T09:58:30;97509.97;;;1.68;49.02
21401;BME280;18038;50.166;18.908;2023-02-26T10:01:45;97516.97;;;1.60;49.11
21401;BME280;18038;50.166;18.908;2023-02-26T10:05:15;97533.34;;;0.53;51.42
21401;BME280;18038;50.166;18.908;2023-02-26T10:08:35;97531.50;;;0.16;53.35
21401;BME280;18038;50.166;18.908;2023-02-26T10:11:54;97543.66;;;0.17;54.07
21401;BME280;18038;50.166;18.908;2023-02-26T10:15:12;97545.03;;;0.78;53.53
21401;BME280;18038;50.166;18.908;2023-02-26T10:18:27;97552.41;;;0.55;52.75
21401;BME280;18038;50.166;18.908;2023-02-26T10:21:45;97554.47;;;0.51;53.82
21401;BME280;18038;50.166;18.908;2023-02-26T10:25:35;97577.78;;;-0.41;58.85
21401;BME280;18038;50.166;18.908;2023-02-26T10:29:31;97588.91;;;-1.49;64.26
21401;BME280;18038;50.166;18.908;2023-02-26T10:32:54;97584.28;;;-1.36;64.65
21401;BME280;18038;50.166;18.908;2023-02-26T10:36:18;97588.22;;;-1.21;65.83
21401;BME280;18038;50.166;18.908;2023-02-26T10:39:32;97583.19;;;-1.33;65.95
21401;BME280;18038;50.166;18.908;2023-02-26T10:42:48;97591.22;;;-1.25;66.90
21401;BME280;18038;50.166;18.908;2023-02-26T10:46:14;97594.78;;;-1.26;66.95
21401;BME280;18038;50.166;18.908;2023-02-26T10:49:50;97596.94;;;-0.60;64.89
21401;BME280;18038;50.166;18.908;2023-02-26T10:53:01;97605.47;;;0.02;61.02
21401;BME280;18038;50.166;18.908;2023-02-26T10:56:16;97606.25;;;0.31;57.05
21401;BME280;18038;50.166;18.908;2023-02-26T10:59:26;97597.53;;;0.40;57.30
21401;BME280;18038;50.166;18.908;2023-02-26T11:02:48;97615.53;;;-0.33;58.25
21401;BME280;18038;50.166;18.908;2023-02-26T11:06:22;97619.53;;;-0.38;59.28
21401;BME280;18038;50.166;18.908;2023-02-26T11:09:44;97619.09;;;-0.43;60.52
21401;BME280;18038;50.166;18.908;2023-02-26T11:12:56;97625.72;;;-0.49;61.23
21401;BME280;18038;50.166;18.908;2023-02-26T11:16:13;97625.50;;;-1.38;64.67
21401;BME280;18038;50.166;18.908;2023-02-26T11:19:30;97618.91;;;-1.32;66.75
21401;BME280;18038;50.166;18.908;2023-02-26T11:22:53;97629.47;;;-1.13;65.95
21401;BME280;18038;50.166;18.908;2023-02-26T11:26:13;97632.19;;;-0.94;64.83
21401;BME280;18038;50.166;18.908;2023-02-26T11:29:35;97636.38;;;-1.12;64.44
21401;BME280;18038;50.166;18.908;2023-02-26T11:32:51;97644.47;;;-0.94;65.57
21401;BME280;18038;50.166;18.908;2023-02-26T11:36:18;97646.84;;;-0.81;65.47
21401;BME280;18038;50.166;18.908;2023-02-26T11:39:38;97664.16;;;-1.00;64.98
21401;BME280;18038;50.166;18.908;2023-02-26T11:42:57;97656.22;;;-1.40;61.57
21401;BME280;18038;50.166;18.908;2023-02-26T11:46:24;97663.50;;;-1.44;60.23
21401;BME280;18038;50.166;18.908;2023-02-26T11:49:54;97675.88;;;-1.67;59.66
21401;BME280;18038;50.166;18.908;2023-02-26T11:53:41;97680.00;;;-1.85;61.45
21401;BME280;18038;50.166;18.908;2023-02-26T11:58:14;97683.97;;;-1.91;62.32
21401;BME280;18038;50.166;18.908;2023-02-26T12:01:29;97691.50;;;-1.76;63.34
21401;BME280;18038;50.166;18.908;2023-02-26T12:04:38;97692.56;;;-1.68;64.39
21401;BME280;18038;50.166;18.908;2023-02-26T12:07:48;97692.63;;;-1.58;64.59
21401;BME280;18038;50.166;18.908;2023-02-26T12:11:06;97692.69;;;-1.48;64.41
21401;BME280;18038;50.166;18.908;2023-02-26T12:14:41;97708.75;;;-1.42;63.27
21401;BME280;18038;50.166;18.908;2023-02-26T12:18:28;97710.94;;;-1.26;63.35
21401;BME280;18038;50.166;18.908;2023-02-26T12:22:12;97722.50;;;-1.28;63.99
21401;BME280;18038;50.166;18.908;2023-02-26T12:25:50;97720.38;;;-1.14;65.26
21401;BME280;18038;50.166;18.908;2023-02-26T12:29:27;97725.06;;;-1.17;65.04
21401;BME280;18038;50.166;18.908;2023-02-26T12:33:07;97724.13;;;-1.48;67.05
21401;BME280;18038;50.166;18.908;2023-02-26T12:36:32;97729.84;;;-1.43;67.45
21401;BME280;18038;50.166;18.908;2023-02-26T12:40:04;97735.44;;;-1.48;67.67
21401;BME280;18038;50.166;18.908;2023-02-26T12:43:31;97744.72;;;-1.44;66.67
21401;BME280;18038;50.166;18.908;2023-02-26T12:47:08;97746.22;;;-1.62;67.85
21401;BME280;18038;50.166;18.908;2023-02-26T12:50:50;97745.97;;;-1.59;67.52
21401;BME280;18038;50.166;18.908;2023-02-26T12:54:28;97750.44;;;-1.50;67.16
21401;BME280;18038;50.166;18.908;2023-02-26T12:57:57;97743.88;;;-1.65;65.87
21401;BME280;18038;50.166;18.908;2023-02-26T13:05:23;97751.19;;;-1.91;64.87
21401;BME280;18038;50.166;18.908;2023-02-26T13:08:44;97753.00;;;-1.92;64.64
21401;BME280;18038;50.166;18.908;2023-02-26T13:12:18;97753.16;;;-1.72;63.95
21401;BME280;18038;50.166;18.908;2023-02-26T13:15:54;97762.06;;;-2.07;64.76
21401;BME280;18038;50.166;18.908;2023-02-26T13:19:25;97775.16;;;-2.18;66.08
21401;BME280;18038;50.166;18.908;2023-02-26T13:22:46;97779.69;;;-2.32;68.53
21401;BME280;18038;50.166;18.908;2023-02-26T13:25:59;97787.53;;;-2.65;70.79
21401;BME280;18038;50.166;18.908;2023-02-26T13:29:22;97791.06;;;-2.66;71.29
21401;BME280;18038;50.166;18.908;2023-02-26T13:32:34;97792.13;;;-2.80;72.84
21401;BME280;18038;50.166;18.908;2023-02-26T13:35:50;97797.25;;;-2.68;73.83
21401;BME280;18038;50.166;18.908;2023-02-26T13:39:24;97808.94;;;-2.49;73.55
21401;BME280;18038;50.166;18.908;2023-02-26T13:42:48;97810.47;;;-2.58;70.64
21401;BME280;18038;50.166;18.908;2023-02-26T13:46:16;97813.66;;;-2.77;69.40
21401;BME280;18038;50.166;18.908;2023-02-26T13:49:35;97816.78;;;-2.60;69.59
21401;BME280;18038;50.166;18.908;2023-02-26T13:53:00;97819.72;;;-2.42;68.99
21401;BME280;18038;50.166;18.908;2023-02-26T13:56:16;97825.59;;;-2.39;67.96
21401;BME280;18038;50.166;18.908;2023-02-26T13:59:44;97840.66;;;-2.42;68.95
21401;BME280;18038;50.166;18.908;2023-02-26T14:02:57;97839.97;;;-2.33;68.14
21401;BME280;18038;50.166;18.908;2023-02-26T14:06:41;97833.19;;;-2.25;68.10
21401;BME280;18038;50.166;18.908;2023-02-26T14:09:59;97844.84;;;-2.17;67.04
21401;BME280;18038;50.166;18.908;2023-02-26T14:13:14;97842.94;;;-2.15;66.84
21401;BME280;18038;50.166;18.908;2023-02-26T14:16:33;97845.44;;;-2.25;65.87
21401;BME280;18038;50.166;18.908;2023-02-26T14:19:43;97853.03;;;-2.22;66.03
21401;BME280;18038;50.166;18.908;2023-02-26T14:23:23;97849.50;;;-2.21;65.47
21401;BME280;18038;50.166;18.908;2023-02-26T14:26:44;97848.53;;;-2.09;64.76
21401;BME280;18038;50.166;18.908;2023-02-26T14:30:14;97840.44;;;-1.94;64.92
21401;BME280;18038;50.166;18.908;2023-02-26T14:33:28;97850.06;;;-1.95;63.65
21401;BME280;18038;50.166;18.908;2023-02-26T14:36:43;97852.00;;;-1.97;64.38
21401;BME280;18038;50.166;18.908;2023-02-26T14:39:57;97859.38;;;-2.02;64.06
21401;BME280;18038;50.166;18.908;2023-02-26T14:43:33;97865.75;;;-1.95;64.15
21401;BME280;18038;50.166;18.908;2023-02-26T14:46:44;97868.16;;;-2.03;64.00
21401;BME280;18038;50.166;18.908;2023-02-26T14:49:53;97870.19;;;-2.07;64.53
21401;BME280;18038;50.166;18.908;2023-02-26T14:57:16;97887.53;;;-2.17;64.44
21401;BME280;18038;50.166;18.908;2023-02-26T15:00:40;97893.75;;;-2.18;65.21
21401;BME280;18038;50.166;18.908;2023-02-26T15:04:14;97900.28;;;-2.23;66.33
21401;BME280;18038;50.166;18.908;2023-02-26T15:07:48;97914.91;;;-2.21;67.01
21401;BME280;18038;50.166;18.908;2023-02-26T15:15:15;97919.53;;;-2.25;67.60
21401;BME280;18038;50.166;18.908;2023-02-26T15:18:49;97929.16;;;-2.14;67.43
21401;BME280;18038;50.166;18.908;2023-02-26T15:22:28;97937.25;;;-2.28;67.96
21401;BME280;18038;50.166;18.908;2023-02-26T15:25:47;97932.75;;;-2.15;68.62
21401;BME280;18038;50.166;18.908;2023-02-26T15:28:56;97942.72;;;-2.20;68.14
21401;BME280;18038;50.166;18.908;2023-02-26T15:32:17;97943.22;;;-2.15;68.09
21401;BME280;18038;50.166;18.908;2023-02-26T15:35:30;97940.59;;;-2.26;68.25
21401;BME280;18038;50.166;18.908;2023-02-26T15:38:46;97938.56;;;-2.22;68.38
21401;BME280;18038;50.166;18.908;2023-02-26T15:41:55;97932.16;;;-2.18;68.39
21401;BME280;18038;50.166;18.908;2023-02-26T15:45:09;97938.81;;;-2.26;67.55
21401;BME280;18038;50.166;18.908;2023-02-26T15:48:29;97949.84;;;-2.33;67.87
21401;BME280;18038;50.166;18.908;2023-02-26T15:51:45;97950.31;;;-2.39;68.30
21401;BME280;18038;50.166;18.908;2023-02-26T15:54:56;97958.03;;;-2.38;68.01
21401;BME280;18038;50.166;18.908;2023-02-26T15:58:26;97962.34;;;-2.37;68.72
21401;BME280;18038;50.166;18.908;2023-02-26T16:01:40;97969.94;;;-2.34;67.76
21401;BME280;18038;50.166;18.908;2023-02-26T16:04:48;97967.06;;;-2.42;68.14
21401;BME280;18038;50.166;18.908;2023-02-26T16:07:55;97974.22;;;-2.33;67.78
21401;BME280;18038;50.166;18.908;2023-02-26T16:11:19;97982.78;;;-2.31;67.91
21401;BME280;18038;50.166;18.908;2023-02-26T16:14:32;97988.13;;;-2.32;68.04
21401;BME280;18038;50.166;18.908;2023-02-26T16:17:44;97992.66;;;-2.34;68.25
21401;BME280;18038;50.166;18.908;2023-02-26T16:20:56;98003.91;;;-2.45;68.74
21401;BME280;18038;50.166;18.908;2023-02-26T16:24:17;98008.69;;;-2.39;69.32
21401;BME280;18038;50.166;18.908;2023-02-26T16:27:33;98023.38;;;-2.49;69.46
21401;BME280;18038;50.166;18.908;2023-02-26T16:30:46;98026.88;;;-2.61;70.40
21401;BME280;18038;50.166;18.908;2023-02-26T16:33:58;98036.03;;;-2.67;71.48
21401;BME280;18038;50.166;18.908;2023-02-26T16:37:21;98035.22;;;-2.80;72.43
21401;BME280;18038;50.166;18.908;2023-02-26T16:40:33;98036.84;;;-2.66;72.41
21401;BME280;18038;50.166;18.908;2023-02-26T16:43:52;98032.53;;;-2.55;72.76
21401;BME280;18038;50.166;18.908;2023-02-26T16:47:09;98026.72;;;-2.47;72.18
21401;BME280;18038;50.166;18.908;2023-02-26T16:50:30;98037.19;;;-2.47;72.28
21401;BME280;18038;50.166;18.908;2023-02-26T16:53:47;98044.97;;;-2.58;72.06
21401;BME280;18038;50.166;18.908;2023-02-26T16:57:00;98049.38;;;-2.59;72.32
21401;BME280;18038;50.166;18.908;2023-02-26T17:00:16;98047.59;;;-2.58;72.58
21401;BME280;18038;50.166;18.908;2023-02-26T17:03:34;98051.16;;;-2.59;71.95
21401;BME280;18038;50.166;18.908;2023-02-26T17:06:42;98056.66;;;-2.51;71.90
21401;BME280;18038;50.166;18.908;2023-02-26T17:09:51;98055.16;;;-2.66;70.95
21401;BME280;18038;50.166;18.908;2023-02-26T17:13:15;98054.00;;;-2.62;71.53
21401;BME280;18038;50.166;18.908;2023-02-26T17:16:27;98059.44;;;-2.65;71.30
21401;BME280;18038;50.166;18.908;2023-02-26T17:19:33;98067.66;;;-2.59;71.11
21401;BME280;18038;50.166;18.908;2023-02-26T17:22:43;98069.47;;;-2.59;70.72
21401;BME280;18038;50.166;18.908;2023-02-26T17:25:51;98075.09;;;-2.53;71.10